createdAt,value
2023-04-10T00:00:15.376Z,51.10
2023-04-10T00:03:04.899Z,51.11
2023-04-10T00:05:34.012Z,51.28
2023-04-10T00:08:03.070Z,51.22
2023-04-10T00:10:32.753Z,51.30
2023-04-10T00:13:03.098Z,51.23
2023-04-10T00:15:32.075Z,51.35
2023-04-10T00:18:00.979Z,51.19
2023-04-10T00:20:30.030Z,51.26
2023-04-10T00:22:59.036Z,51.35
2023-04-10T00:25:28.090Z,51.38
2023-04-10T00:27:57.103Z,51.36
2023-04-10T00:30:26.418Z,51.40
2023-04-10T00:32:55.539Z,51.42
2023-04-10T00:35:24.585Z,51.42
2023-04-10T00:37:54.073Z,51.34
2023-04-10T00:40:23.137Z,51.39
2023-04-10T00:42:52.305Z,51.42
2023-04-10T00:45:21.769Z,51.43
2023-04-10T00:47:51.424Z,51.44
2023-04-10T00:50:21.843Z,51.51
2023-04-10T00:52:51.585Z,51.47
2023-04-10T00:55:20.690Z,51.41
2023-04-10T00:57:50.101Z,51.52
2023-04-10T01:00:19.154Z,51.48
2023-04-10T01:02:48.231Z,51.59
2023-04-10T01:05:17.505Z,51.54
2023-04-10T01:08:02.538Z,51.48
2023-04-10T01:10:38.519Z,51.63
2023-04-10T01:13:16.464Z,51.55
2023-04-10T01:15:52.808Z,51.68
2023-04-10T01:18:29.418Z,51.66
2023-04-10T01:21:02.465Z,51.74
2023-04-10T01:24:00.636Z,51.72
2023-04-10T01:26:42.847Z,51.75
2023-04-10T01:29:14.813Z,51.82
2023-04-10T01:31:50.767Z,51.85
2023-04-10T01:34:20.619Z,51.93
2023-04-10T01:36:53.661Z,51.91
2023-04-10T01:39:23.891Z,51.95
2023-04-10T01:41:54.401Z,51.89
2023-04-10T01:44:27.846Z,52.04
2023-04-10T01:46:58.638Z,52.10
2023-04-10T01:49:30.458Z,52.09
2023-04-10T01:52:01.654Z,52.12
2023-04-10T01:54:32.781Z,52.15
2023-04-10T01:57:03.765Z,52.12
2023-04-10T01:59:33.031Z,52.15
2023-04-10T02:02:02.647Z,52.16
2023-04-10T02:04:31.801Z,52.20
2023-04-10T02:07:04.607Z,52.27
2023-04-10T02:09:58.277Z,52.26
2023-04-10T02:12:31.931Z,52.33
2023-04-10T02:15:03.175Z,52.39
2023-04-10T02:17:33.913Z,52.38
2023-04-10T02:20:05.402Z,52.37
2023-04-10T02:22:36.094Z,52.38
2023-04-10T02:25:08.132Z,52.49
2023-04-10T02:27:37.827Z,52.45
2023-04-10T02:30:09.074Z,52.55
2023-04-10T02:32:38.073Z,52.66
2023-04-10T02:35:08.028Z,52.55
2023-04-10T02:37:37.142Z,52.61
2023-04-10T02:40:08.580Z,52.74
2023-04-10T02:42:37.468Z,52.76
2023-04-10T02:45:08.979Z,52.63
2023-04-10T02:47:38.075Z,52.81
2023-04-10T02:50:08.537Z,52.75
2023-04-10T02:52:37.622Z,52.81
2023-04-10T02:55:08.159Z,52.88
2023-04-10T02:57:37.266Z,52.88
2023-04-10T03:00:08.946Z,52.87
2023-04-10T03:02:38.055Z,52.85
2023-04-10T03:05:08.973Z,52.89
2023-04-10T03:07:37.925Z,52.95
2023-04-10T03:10:09.284Z,52.99
2023-04-10T03:12:38.145Z,53.07
2023-04-10T03:15:09.416Z,53.08
2023-04-10T03:17:38.294Z,53.11
2023-04-10T03:20:10.868Z,53.14
2023-04-10T03:22:40.566Z,53.12
2023-04-10T03:25:10.745Z,53.14
2023-04-10T03:27:40.632Z,53.20
2023-04-10T03:30:12.137Z,53.30
2023-04-10T03:32:42.444Z,53.20
2023-04-10T03:35:11.847Z,53.26
2023-04-10T03:37:42.075Z,53.35
2023-04-10T03:40:12.192Z,53.26
2023-04-10T03:42:41.095Z,53.26
2023-04-10T03:45:12.528Z,53.31
2023-04-10T03:47:41.683Z,53.31
2023-04-10T03:50:11.702Z,53.39
2023-04-10T03:52:41.231Z,53.38
2023-04-10T03:55:10.679Z,53.45
2023-04-10T03:57:39.635Z,53.37
2023-04-10T04:00:12.138Z,53.45
2023-04-10T04:02:41.423Z,53.46
2023-04-10T04:05:10.854Z,53.44
2023-04-10T04:07:39.959Z,53.47
2023-04-10T04:10:09.926Z,53.65
2023-04-10T04:12:38.955Z,53.59
2023-04-10T04:15:10.398Z,53.62
2023-04-10T04:17:40.022Z,53.59
2023-04-10T04:20:11.264Z,53.68
2023-04-10T04:22:40.952Z,53.64
2023-04-10T04:25:10.969Z,53.60
2023-04-10T04:27:40.024Z,53.70
2023-04-10T04:30:11.152Z,53.66
2023-04-10T04:32:40.220Z,53.61
2023-04-10T04:35:10.827Z,53.65
2023-04-10T04:37:40.226Z,53.71
2023-04-10T04:40:11.237Z,53.62
2023-04-10T04:42:40.315Z,53.71
2023-04-10T04:45:11.284Z,53.77
2023-04-10T04:47:40.186Z,53.76
2023-04-10T04:50:11.162Z,53.84
2023-04-10T04:52:40.175Z,53.79
2023-04-10T04:55:10.507Z,53.80
2023-04-10T04:57:39.498Z,53.77
2023-04-10T05:00:11.089Z,53.85
2023-04-10T05:02:40.141Z,53.76
2023-04-10T05:05:10.108Z,53.86
2023-04-10T05:07:39.070Z,53.91
2023-04-10T05:10:09.973Z,53.96
2023-04-10T05:12:41.294Z,53.90
2023-04-10T05:15:11.407Z,53.82
2023-04-10T05:17:40.801Z,53.86
2023-04-10T05:20:12.329Z,53.85
2023-04-10T05:22:41.327Z,53.69
2023-04-10T05:25:10.712Z,53.76
2023-04-10T05:27:39.847Z,53.83
2023-04-10T05:30:11.252Z,53.84
2023-04-10T05:32:40.187Z,53.82
2023-04-10T05:35:10.294Z,53.68
2023-04-10T05:37:39.319Z,53.62
2023-04-10T05:40:10.543Z,53.61
2023-04-10T05:42:39.464Z,53.49
2023-04-10T05:45:09.877Z,53.42
2023-04-10T05:47:38.949Z,53.39
2023-04-10T05:50:09.596Z,53.21
2023-04-10T05:52:38.677Z,53.10
2023-04-10T05:55:10.028Z,52.98
2023-04-10T05:57:40.135Z,52.91
2023-04-10T06:00:11.637Z,52.84
2023-04-10T06:02:40.957Z,52.71
2023-04-10T06:05:10.750Z,52.58
2023-04-10T06:07:40.005Z,52.44
2023-04-10T06:10:11.356Z,52.47
2023-04-10T06:12:40.383Z,52.31
2023-04-10T06:15:11.366Z,52.24
2023-04-10T06:17:43.584Z,52.18
2023-04-10T06:20:13.631Z,51.92
2023-04-10T06:22:42.631Z,51.86
2023-04-10T06:25:11.797Z,51.69
2023-04-10T06:27:40.689Z,51.45
2023-04-10T06:30:11.504Z,51.50
2023-04-10T06:32:41.249Z,51.45
2023-04-10T06:35:11.060Z,51.24
2023-04-10T06:37:39.924Z,51.14
2023-04-10T06:40:11.807Z,50.92
2023-04-10T06:42:41.314Z,50.86
2023-04-10T06:45:11.600Z,50.66
2023-04-10T06:47:41.076Z,50.51
2023-04-10T06:50:11.044Z,50.37
2023-04-10T06:52:40.043Z,50.08
2023-04-10T06:55:10.233Z,49.90
2023-04-10T06:57:39.310Z,49.70
2023-04-10T07:00:10.616Z,49.85
2023-04-10T07:02:39.584Z,49.57
2023-04-10T07:05:10.445Z,49.50
2023-04-10T07:07:39.452Z,49.33
2023-04-10T07:10:10.423Z,49.29
2023-04-10T07:12:39.355Z,49.16
2023-04-10T07:15:11.835Z,48.93
2023-04-10T07:17:40.813Z,48.79
2023-04-10T07:20:11.895Z,48.61
2023-04-10T07:22:41.119Z,48.45
2023-04-10T07:25:11.346Z,48.17
2023-04-10T07:27:40.681Z,47.95
2023-04-10T07:30:13.397Z,47.01
2023-04-10T07:32:42.873Z,46.90
2023-04-10T07:35:11.916Z,47.07
2023-04-10T07:37:41.384Z,47.02
2023-04-10T07:40:12.018Z,46.95
2023-04-10T07:42:40.936Z,46.77
2023-04-10T07:45:11.792Z,46.63
2023-04-10T07:47:40.960Z,46.65
2023-04-10T07:50:10.804Z,46.21
2023-04-10T07:52:39.744Z,45.92
2023-04-10T07:55:09.952Z,45.97
2023-04-10T07:57:40.087Z,44.86
2023-04-10T08:00:13.690Z,44.88
2023-04-10T08:02:42.895Z,44.27
2023-04-10T08:05:12.187Z,44.37
2023-04-10T08:07:41.192Z,44.45
2023-04-10T08:10:11.910Z,44.18
2023-04-10T08:12:40.819Z,44.14
2023-04-10T08:15:11.254Z,43.87
2023-04-10T08:17:40.121Z,43.88
2023-04-10T08:20:12.699Z,43.63
2023-04-10T08:22:41.760Z,43.32
2023-04-10T08:25:11.249Z,43.08
2023-04-10T08:27:40.182Z,42.80
2023-04-10T08:30:11.176Z,42.65
2023-04-10T08:32:40.235Z,42.56
2023-04-10T08:35:10.375Z,42.18
2023-04-10T08:37:39.377Z,42.15
2023-04-10T08:40:10.261Z,41.97
2023-04-10T08:42:39.411Z,41.75
2023-04-10T08:45:10.858Z,41.58
2023-04-10T08:47:43.810Z,41.36
2023-04-10T08:50:16.033Z,41.12
2023-04-10T08:52:46.942Z,40.96
2023-04-10T08:55:15.914Z,40.57
2023-04-10T08:57:54.140Z,40.60
2023-04-10T09:00:30.995Z,40.45
2023-04-10T09:03:00.284Z,40.28
2023-04-10T09:05:30.652Z,39.96
2023-04-10T09:07:59.741Z,39.71
2023-04-10T09:10:29.032Z,40.00
2023-04-10T09:12:57.954Z,39.86
2023-04-10T09:15:26.906Z,39.56
2023-04-10T09:18:00.917Z,39.32
2023-04-10T09:20:32.779Z,39.43
2023-04-10T09:23:01.809Z,39.32
2023-04-10T09:25:33.398Z,38.78
2023-04-10T09:28:04.300Z,38.88
2023-04-10T09:30:38.747Z,38.69
2023-04-10T09:33:24.392Z,38.52
2023-04-10T09:35:53.355Z,38.27
2023-04-10T09:38:23.324Z,38.30
2023-04-10T09:40:53.757Z,38.02
2023-04-10T09:43:25.435Z,38.03
2023-04-10T09:45:56.737Z,37.88
2023-04-10T09:48:26.871Z,37.65
2023-04-10T09:50:57.127Z,37.67
2023-04-10T09:53:26.943Z,37.69
2023-04-10T09:55:57.588Z,37.51
2023-04-10T09:58:27.510Z,37.19
2023-04-10T10:00:56.794Z,37.03
2023-04-10T10:03:26.557Z,36.86
2023-04-10T10:05:56.016Z,36.90
2023-04-10T10:08:25.908Z,36.93
2023-04-10T10:10:57.256Z,36.71
2023-04-10T10:13:34.734Z,36.58
2023-04-10T10:16:12.058Z,36.38
2023-04-10T10:18:47.538Z,36.14
2023-04-10T10:21:18.917Z,36.23
2023-04-10T10:23:53.266Z,36.19
2023-04-10T10:26:23.917Z,36.08
2023-04-10T10:28:53.936Z,35.96
2023-04-10T10:31:24.828Z,35.71
2023-04-10T10:33:54.139Z,35.79
2023-04-10T10:36:24.206Z,35.76
2023-04-10T10:39:11.175Z,35.46
2023-04-10T10:41:46.965Z,35.38
2023-04-10T10:44:21.525Z,35.48
2023-04-10T10:46:58.763Z,35.26
2023-04-10T10:49:52.875Z,35.17
2023-04-10T10:52:39.954Z,35.16
2023-04-10T10:55:36.562Z,35.03
2023-04-10T10:58:07.053Z,34.65
2023-04-10T11:01:10.702Z,34.81
2023-04-10T11:03:40.079Z,34.70
2023-04-10T11:06:12.170Z,34.48
2023-04-10T11:08:46.307Z,34.52
2023-04-10T11:11:19.764Z,34.68
2023-04-10T11:14:19.613Z,34.65
2023-04-10T11:16:48.642Z,34.66
2023-04-10T11:19:21.725Z,34.64
2023-04-10T11:22:06.916Z,34.52
2023-04-10T11:25:00.169Z,34.25
2023-04-10T11:27:48.891Z,34.36
2023-04-10T11:30:37.318Z,34.50
2023-04-10T11:33:06.732Z,34.33
2023-04-10T11:35:36.060Z,34.56
2023-04-10T11:38:16.350Z,34.60
2023-04-10T11:41:06.431Z,34.50
2023-04-10T11:43:35.525Z,34.23
2023-04-10T11:46:08.726Z,34.28
2023-04-10T11:48:38.148Z,34.18
2023-04-10T11:51:11.738Z,33.93
2023-04-10T11:53:41.788Z,34.09
2023-04-10T11:56:18.752Z,34.17
2023-04-10T11:58:50.322Z,34.14
2023-04-10T12:01:22.430Z,33.97
2023-04-10T12:03:51.848Z,33.90
2023-04-10T12:06:22.007Z,33.97
2023-04-10T12:08:51.220Z,33.84
2023-04-10T12:11:21.865Z,34.11
2023-04-10T12:13:53.185Z,33.88
2023-04-10T12:16:23.008Z,33.95
2023-04-10T12:18:53.145Z,34.12
2023-04-10T12:21:22.430Z,34.11
2023-04-10T12:23:52.443Z,34.16
2023-04-10T12:26:22.019Z,34.01
2023-04-10T12:28:56.882Z,33.82
2023-04-10T12:31:30.822Z,33.87
2023-04-10T12:34:01.649Z,33.72
2023-04-10T12:36:33.769Z,33.93
2023-04-10T12:39:04.772Z,34.12
2023-04-10T12:41:35.420Z,33.86
2023-04-10T12:44:12.229Z,33.96
2023-04-10T12:46:42.441Z,33.90
2023-04-10T12:49:13.089Z,33.91
2023-04-10T12:51:46.563Z,34.09
2023-04-10T12:54:30.095Z,33.95
2023-04-10T12:56:59.972Z,33.90
2023-04-10T12:59:29.094Z,33.96
2023-04-10T13:01:58.217Z,33.88
2023-04-10T13:04:28.978Z,33.85
2023-04-10T13:06:57.972Z,34.03
2023-04-10T13:09:26.882Z,33.84
2023-04-10T13:11:57.080Z,33.79
2023-04-10T13:14:26.548Z,33.76
2023-04-10T13:16:55.419Z,33.86
2023-04-10T13:19:24.357Z,33.99
2023-04-10T13:21:53.409Z,33.69
2023-04-10T13:24:22.858Z,33.92
2023-04-10T13:26:51.795Z,33.84
2023-04-10T13:29:20.719Z,33.73
2023-04-10T13:31:50.219Z,33.87
2023-04-10T13:34:19.257Z,33.69
2023-04-10T13:36:48.393Z,33.58
2023-04-10T13:39:18.032Z,33.59
2023-04-10T13:41:47.117Z,33.78
2023-04-10T13:44:16.155Z,33.46
2023-04-10T13:46:45.126Z,33.63
2023-04-10T13:49:16.886Z,33.75
2023-04-10T13:51:46.917Z,33.76
2023-04-10T13:54:16.811Z,33.58
2023-04-10T13:56:45.791Z,33.78
2023-04-10T13:59:15.255Z,33.45
2023-04-10T14:01:44.291Z,33.42
2023-04-10T14:04:13.288Z,33.63
2023-04-10T14:06:42.443Z,33.69
2023-04-10T14:09:11.451Z,33.88
2023-04-10T14:11:40.500Z,33.83
2023-04-10T14:14:09.541Z,33.69
2023-04-10T14:16:38.667Z,33.43
2023-04-10T14:19:07.744Z,33.61
2023-04-10T14:21:36.761Z,33.68
2023-04-10T14:24:06.012Z,33.57
2023-04-10T14:26:34.942Z,33.67
2023-04-10T14:29:04.346Z,33.66
2023-04-10T14:31:33.720Z,33.60
2023-04-10T14:34:03.612Z,33.73
2023-04-10T14:36:32.881Z,33.67
2023-04-10T14:39:02.533Z,33.54
2023-04-10T14:41:31.529Z,33.65
2023-04-10T14:44:00.485Z,33.62
2023-04-10T14:46:29.460Z,33.67
2023-04-10T14:48:58.457Z,33.63
2023-04-10T14:51:27.314Z,33.65
2023-04-10T14:53:56.521Z,33.86
2023-04-10T14:56:25.700Z,33.81
2023-04-10T14:58:54.638Z,33.82
2023-04-10T15:01:23.637Z,33.75
2023-04-10T15:03:53.056Z,33.86
2023-04-10T15:06:22.389Z,33.65
2023-04-10T15:08:51.362Z,33.77
2023-04-10T15:11:20.329Z,33.77
2023-04-10T15:13:49.433Z,33.88
2023-04-10T15:16:18.466Z,33.87
2023-04-10T15:18:48.639Z,33.78
2023-04-10T15:21:18.157Z,34.04
2023-04-10T15:23:47.252Z,34.00
2023-04-10T15:26:16.933Z,33.93
2023-04-10T15:28:46.122Z,33.93
2023-04-10T15:31:15.230Z,34.02
2023-04-10T15:33:44.257Z,33.94
2023-04-10T15:36:13.286Z,34.06
2023-04-10T15:38:42.345Z,34.08
2023-04-10T15:41:12.990Z,34.01
2023-04-10T15:43:42.330Z,34.05
2023-04-10T15:46:11.342Z,34.00
2023-04-10T15:48:40.358Z,33.98
2023-04-10T15:51:09.531Z,34.00
2023-04-10T15:53:38.497Z,34.11
2023-04-10T15:56:08.844Z,34.16
2023-04-10T15:58:37.811Z,34.05
2023-04-10T16:01:07.674Z,34.06
2023-04-10T16:03:36.768Z,34.09
2023-04-10T16:06:07.808Z,34.04
2023-04-10T16:08:36.818Z,34.09
2023-04-10T16:11:06.578Z,34.19
2023-04-10T16:13:35.493Z,34.15
2023-04-10T16:16:05.509Z,34.29
2023-04-10T16:18:34.553Z,34.23
2023-04-10T16:21:07.701Z,34.24
2023-04-10T16:23:36.573Z,34.24
2023-04-10T16:26:06.307Z,34.41
2023-04-10T16:28:35.427Z,34.28
2023-04-10T16:31:04.712Z,34.36
2023-04-10T16:33:33.632Z,34.25
2023-04-10T16:36:04.162Z,34.41
2023-04-10T16:38:34.023Z,34.45
2023-04-10T16:41:04.058Z,34.48
2023-04-10T16:43:33.079Z,34.53
2023-04-10T16:46:02.089Z,34.60
2023-04-10T16:48:30.963Z,34.75
2023-04-10T16:51:05.236Z,34.85
2023-04-10T16:53:35.289Z,34.94
2023-04-10T16:56:05.213Z,35.11
2023-04-10T16:58:36.320Z,35.21
2023-04-10T17:01:17.185Z,35.34
2023-04-10T17:03:47.114Z,35.34
2023-04-10T17:06:16.474Z,35.45
2023-04-10T17:08:45.804Z,35.62
2023-04-10T17:11:15.390Z,35.75
2023-04-10T17:13:45.762Z,35.81
2023-04-10T17:16:14.942Z,35.92
2023-04-10T17:18:45.065Z,36.02
2023-04-10T17:21:14.067Z,36.13
2023-04-10T17:23:43.038Z,36.17
2023-04-10T17:26:15.529Z,36.27
2023-04-10T17:28:45.747Z,36.31
2023-04-10T17:31:15.381Z,36.44
2023-04-10T17:33:44.690Z,36.50
2023-04-10T17:36:14.479Z,36.57
2023-04-10T17:38:43.466Z,36.69
2023-04-10T17:41:15.039Z,36.77
2023-04-10T17:43:43.949Z,36.83
2023-04-10T17:46:14.982Z,36.94
2023-04-10T17:48:44.731Z,37.04
2023-04-10T17:51:13.773Z,37.06
2023-04-10T17:53:42.778Z,37.16
2023-04-10T17:56:19.304Z,37.21
2023-04-10T17:58:48.262Z,37.30
2023-04-10T18:01:22.899Z,37.40
2023-04-10T18:03:52.044Z,37.45
2023-04-10T18:06:21.212Z,37.58
2023-04-10T18:08:50.332Z,37.63
2023-04-10T18:11:19.363Z,37.71
2023-04-10T18:13:48.401Z,37.87
2023-04-10T18:16:17.438Z,37.93
2023-04-10T18:18:46.536Z,38.01
2023-04-10T18:21:15.898Z,38.13
2023-04-10T18:23:44.891Z,38.16
2023-04-10T18:26:13.808Z,38.25
2023-04-10T18:28:44.739Z,38.26
2023-04-10T18:31:15.438Z,38.50
2023-04-10T18:33:45.506Z,38.47
2023-04-10T18:36:18.351Z,38.58
2023-04-10T18:38:47.841Z,38.66
2023-04-10T18:41:16.973Z,38.76
2023-04-10T18:44:01.734Z,38.86
2023-04-10T18:46:33.888Z,38.99
2023-04-10T18:49:03.016Z,38.96
2023-04-10T18:51:34.565Z,39.13
2023-04-10T18:54:04.424Z,39.11
2023-04-10T18:56:36.700Z,39.17
2023-04-10T18:59:05.969Z,39.33
2023-04-10T19:01:35.018Z,39.48
2023-04-10T19:04:04.200Z,39.59
2023-04-10T19:06:34.649Z,39.52
2023-04-10T19:09:03.604Z,39.53
2023-04-10T19:11:33.154Z,39.72
2023-04-10T19:14:05.644Z,39.70
2023-04-10T19:16:35.220Z,39.74
2023-04-10T19:19:04.433Z,39.91
2023-04-10T19:21:33.853Z,40.07
2023-04-10T19:24:02.868Z,39.94
2023-04-10T19:26:31.969Z,40.07
2023-04-10T19:29:01.093Z,40.29
2023-04-10T19:31:30.485Z,40.25
2023-04-10T19:34:01.929Z,40.30
2023-04-10T19:36:30.848Z,40.40
2023-04-10T19:38:59.782Z,40.51
2023-04-10T19:41:28.752Z,40.51
2023-04-10T19:43:58.329Z,40.55
2023-04-10T19:46:27.671Z,40.60
2023-04-10T19:48:56.766Z,40.72
2023-04-10T19:51:26.639Z,40.81
2023-04-10T19:53:56.821Z,40.85
2023-04-10T19:56:27.181Z,41.03
2023-04-10T19:58:56.404Z,41.11
2023-04-10T20:01:25.640Z,41.08
2023-04-10T20:03:54.753Z,41.16
2023-04-10T20:06:23.915Z,41.22
2023-04-10T20:08:53.175Z,41.30
2023-04-10T20:11:22.387Z,41.36
2023-04-10T20:13:52.552Z,41.37
2023-04-10T20:16:21.547Z,41.51
2023-04-10T20:18:51.516Z,41.52
2023-04-10T20:21:20.669Z,41.54
2023-04-10T20:23:49.591Z,41.68
2023-04-10T20:26:18.900Z,41.60
2023-04-10T20:28:47.804Z,41.79
2023-04-10T20:31:16.850Z,41.80
2023-04-10T20:33:45.782Z,41.88
2023-04-10T20:36:14.726Z,41.88
2023-04-10T20:38:43.620Z,42.03
2023-04-10T20:41:12.588Z,41.97
2023-04-10T20:43:41.680Z,42.08
2023-04-10T20:46:10.699Z,42.12
2023-04-10T20:48:39.594Z,42.15
2023-04-10T20:51:09.958Z,42.30
2023-04-10T20:53:38.947Z,42.24
2023-04-10T20:56:09.024Z,42.31
2023-04-10T20:58:38.151Z,42.37
2023-04-10T21:01:09.504Z,42.40
2023-04-10T21:03:38.631Z,42.35
2023-04-10T21:06:10.501Z,42.57
2023-04-10T21:08:39.498Z,42.42
2023-04-10T21:11:08.853Z,42.57
2023-04-10T21:13:38.624Z,42.57
2023-04-10T21:16:08.969Z,42.59
2023-04-10T21:18:38.004Z,42.70
2023-04-10T21:21:08.177Z,42.68
2023-04-10T21:23:37.204Z,42.79
2023-04-10T21:26:06.480Z,42.88
2023-04-10T21:28:35.557Z,43.00
2023-04-10T21:31:04.908Z,43.16
2023-04-10T21:33:33.865Z,43.07
2023-04-10T21:36:02.987Z,43.11
2023-04-10T21:38:31.953Z,43.00
2023-04-10T21:41:01.010Z,43.15
2023-04-10T21:43:30.122Z,43.10
2023-04-10T21:46:00.351Z,43.26
2023-04-10T21:48:30.995Z,43.17
2023-04-10T21:51:01.464Z,43.46
2023-04-10T21:53:30.455Z,43.42
2023-04-10T21:55:59.620Z,43.35
2023-04-10T21:58:28.948Z,43.28
2023-04-10T22:00:57.969Z,43.33
2023-04-10T22:03:27.184Z,43.42
2023-04-10T22:05:56.387Z,43.51
2023-04-10T22:08:25.478Z,43.49
2023-04-10T22:10:54.817Z,43.58
2023-04-10T22:13:30.781Z,43.61
2023-04-10T22:16:01.655Z,43.57
2023-04-10T22:18:31.372Z,43.73
2023-04-10T22:21:00.432Z,43.65
2023-04-10T22:23:29.470Z,43.72
2023-04-10T22:26:00.599Z,43.64
2023-04-10T22:28:29.667Z,43.76
2023-04-10T22:30:58.802Z,43.76
2023-04-10T22:33:27.810Z,43.84
2023-04-10T22:35:56.890Z,43.85
2023-04-10T22:38:25.764Z,43.82
2023-04-10T22:40:55.672Z,43.92
2023-04-10T22:43:24.960Z,43.94
2023-04-10T22:45:53.995Z,43.94
2023-04-10T22:48:22.955Z,44.11
2023-04-10T22:50:52.004Z,44.09
2023-04-10T22:53:21.051Z,44.20
2023-04-10T22:55:50.153Z,44.06
2023-04-10T22:58:19.241Z,44.27
2023-04-10T23:00:48.135Z,44.14
2023-04-10T23:03:17.232Z,44.26
2023-04-10T23:05:46.804Z,44.34
2023-04-10T23:08:15.875Z,44.44
2023-04-10T23:10:44.780Z,44.33
2023-04-10T23:13:13.890Z,44.55
2023-04-10T23:15:50.016Z,44.41
2023-04-10T23:18:19.381Z,44.45
2023-04-10T23:20:48.970Z,44.56
2023-04-10T23:23:18.053Z,44.59
2023-04-10T23:25:47.427Z,44.62
2023-04-10T23:28:16.345Z,44.70
2023-04-10T23:30:45.357Z,44.75
2023-04-10T23:33:14.255Z,44.74
2023-04-10T23:35:43.468Z,44.72
2023-04-10T23:42:12.665Z,44.99
2023-04-10T23:44:41.718Z,45.21
2023-04-10T23:47:10.645Z,45.25
2023-04-10T23:49:39.913Z,45.33
2023-04-10T23:52:10.626Z,45.44
2023-04-10T23:54:40.311Z,45.52
2023-04-10T23:57:09.384Z,45.43
2023-04-10T23:59:38.422Z,45.52
